sensor_id;sensor_type;location;lat;lon;timestamp;temperature;humidity
78904;DHT22;68291;49.602;8.722;2023-03-17T00:02:11;8.80;99.90
78904;DHT22;68291;49.602;8.722;2023-03-17T00:04:51;8.80;99.90
78904;DHT22;68291;49.602;8.722;2023-03-17T00:07:40;8.80;99.90
78904;DHT22;68291;49.602;8.722;2023-03-17T00:10:39;8.70;99.90
78904;DHT22;68291;49.602;8.722;2023-03-17T00:13:49;8.70;99.90
78904;DHT22;68291;49.602;8.722;2023-03-17T00:16:52;8.70;99.90
78904;DHT22;68291;49.602;8.722;2023-03-17T00:19:49;8.70;99.90
78904;DHT22;68291;49.602;8.722;2023-03-17T00:22:45;8.70;99.90
78904;DHT22;68291;49.602;8.722;2023-03-17T00:25:33;8.80;99.90
78904;DHT22;68291;49.602;8.722;2023-03-17T00:28:25;8.80;99.90
78904;DHT22;68291;49.602;8.722;2023-03-17T00:31:17;8.80;99.90
78904;DHT22;68291;49.602;8.722;2023-03-17T00:33:56;8.80;99.90
78904;DHT22;68291;49.602;8.722;2023-03-17T00:36:52;8.90;99.90
78904;DHT22;68291;49.602;8.722;2023-03-17T00:39:23;8.80;99.90
78904;DHT22;68291;49.602;8.722;2023-03-17T00:42:22;8.90;99.90
78904;DHT22;68291;49.602;8.722;2023-03-17T00:45:10;8.90;99.90
78904;DHT22;68291;49.602;8.722;2023-03-17T00:47:57;8.90;99.90
78904;DHT22;68291;49.602;8.722;2023-03-17T00:50:55;8.90;99.90
78904;DHT22;68291;49.602;8.722;2023-03-17T00:53:39;8.80;99.90
78904;DHT22;68291;49.602;8.722;2023-03-17T00:56:29;8.80;99.90
78904;DHT22;68291;49.602;8.722;2023-03-17T00:59:20;8.80;99.90
78904;DHT22;68291;49.602;8.722;2023-03-17T01:02:11;8.80;99.90
78904;DHT22;68291;49.602;8.722;2023-03-17T01:05:08;8.80;99.90
78904;DHT22;68291;49.602;8.722;2023-03-17T01:07:49;8.80;99.90
78904;DHT22;68291;49.602;8.722;2023-03-17T01:10:44;8.80;99.90
78904;DHT22;68291;49.602;8.722;2023-03-17T01:13:33;8.80;99.90
78904;DHT22;68291;49.602;8.722;2023-03-17T01:16:13;8.80;99.90
78904;DHT22;68291;49.602;8.722;2023-03-17T01:19:00;8.80;99.90
78904;DHT22;68291;49.602;8.722;2023-03-17T01:21:52;8.80;99.90
78904;DHT22;68291;49.602;8.722;2023-03-17T01:24:26;8.80;99.90
78904;DHT22;68291;49.602;8.722;2023-03-17T01:27:22;8.80;99.90
78904;DHT22;68291;49.602;8.722;2023-03-17T01:30:26;8.80;99.90
78904;DHT22;68291;49.602;8.722;2023-03-17T01:33:24;8.80;99.90
78904;DHT22;68291;49.602;8.722;2023-03-17T01:36:04;8.80;99.90
78904;DHT22;68291;49.602;8.722;2023-03-17T01:39:07;8.70;99.90
78904;DHT22;68291;49.602;8.722;2023-03-17T01:41:47;8.70;99.90
78904;DHT22;68291;49.602;8.722;2023-03-17T01:44:31;8.80;99.90
78904;DHT22;68291;49.602;8.722;2023-03-17T01:47:39;8.70;99.90
78904;DHT22;68291;49.602;8.722;2023-03-17T01:50:38;8.70;99.90
78904;DHT22;68291;49.602;8.722;2023-03-17T01:53:14;8.70;99.90
78904;DHT22;68291;49.602;8.722;2023-03-17T01:56:07;8.70;99.90
78904;DHT22;68291;49.602;8.722;2023-03-17T01:58:52;8.70;99.90
78904;DHT22;68291;49.602;8.722;2023-03-17T02:01:53;8.70;99.90
78904;DHT22;68291;49.602;8.722;2023-03-17T02:04:33;8.70;99.90
78904;DHT22;68291;49.602;8.722;2023-03-17T02:07:24;8.70;99.90
78904;DHT22;68291;49.602;8.722;2023-03-17T02:10:18;8.70;99.90
78904;DHT22;68291;49.602;8.722;2023-03-17T02:13:20;8.60;99.90
78904;DHT22;68291;49.602;8.722;2023-03-17T02:15:54;8.60;99.90
78904;DHT22;68291;49.602;8.722;2023-03-17T02:18:37;8.60;99.90
78904;DHT22;68291;49.602;8.722;2023-03-17T02:21:38;8.60;99.90
78904;DHT22;68291;49.602;8.722;2023-03-17T02:24:32;8.60;99.90
78904;DHT22;68291;49.602;8.722;2023-03-17T02:27:33;8.60;99.90
78904;DHT22;68291;49.602;8.722;2023-03-17T02:30:35;8.60;99.90
78904;DHT22;68291;49.602;8.722;2023-03-17T02:33:37;8.60;99.90
78904;DHT22;68291;49.602;8.722;2023-03-17T02:36:36;8.50;99.90
78904;DHT22;68291;49.602;8.722;2023-03-17T02:39:29;8.50;99.90
78904;DHT22;68291;49.602;8.722;2023-03-17T02:42:01;8.50;99.90
78904;DHT22;68291;49.602;8.722;2023-03-17T02:44:35;8.50;99.90
78904;DHT22;68291;49.602;8.722;2023-03-17T02:47:07;8.40;99.90
78904;DHT22;68291;49.602;8.722;2023-03-17T02:49:52;8.40;99.90
78904;DHT22;68291;49.602;8.722;2023-03-17T02:53:01;8.40;99.90
78904;DHT22;68291;49.602;8.722;2023-03-17T02:55:51;8.30;99.90
78904;DHT22;68291;49.602;8.722;2023-03-17T02:58:42;8.30;99.90
78904;DHT22;68291;49.602;8.722;2023-03-17T03:01:38;8.20;99.90
78904;DHT22;68291;49.602;8.722;2023-03-17T03:04:19;8.20;99.90
78904;DHT22;68291;49.602;8.722;2023-03-17T03:07:11;8.10;99.90
78904;DHT22;68291;49.602;8.722;2023-03-17T03:10:12;8.00;99.90
78904;DHT22;68291;49.602;8.722;2023-03-17T03:12:56;8.00;99.90
78904;DHT22;68291;49.602;8.722;2023-03-17T03:15:29;7.90;99.90
78904;DHT22;68291;49.602;8.722;2023-03-17T03:18:18;7.80;99.90
78904;DHT22;68291;49.602;8.722;2023-03-17T03:21:03;7.80;99.90
78904;DHT22;68291;49.602;8.722;2023-03-17T03:23:47;7.70;99.90
78904;DHT22;68291;49.602;8.722;2023-03-17T03:26:33;7.70;99.90
78904;DHT22;68291;49.602;8.722;2023-03-17T03:29:28;7.50;99.90
78904;DHT22;68291;49.602;8.722;2023-03-17T03:32:13;7.50;99.90
78904;DHT22;68291;49.602;8.722;2023-03-17T03:34:53;7.40;99.90
78904;DHT22;68291;49.602;8.722;2023-03-17T03:37:49;7.30;99.90
78904;DHT22;68291;49.602;8.722;2023-03-17T03:40:21;7.30;99.90
78904;DHT22;68291;49.602;8.722;2023-03-17T03:43:13;7.20;99.90
78904;DHT22;68291;49.602;8.722;2023-03-17T03:46:07;7.20;99.90
78904;DHT22;68291;49.602;8.722;2023-03-17T03:48:55;7.10;99.90
78904;DHT22;68291;49.602;8.722;2023-03-17T03:51:42;7.00;99.90
78904;DHT22;68291;49.602;8.722;2023-03-17T03:54:22;7.00;99.90
78904;DHT22;68291;49.602;8.722;2023-03-17T03:57:04;7.00;99.90
78904;DHT22;68291;49.602;8.722;2023-03-17T04:00:07;6.90;99.90
78904;DHT22;68291;49.602;8.722;2023-03-17T04:02:52;6.90;99.90
78904;DHT22;68291;49.602;8.722;2023-03-17T04:05:39;6.90;99.90
78904;DHT22;68291;49.602;8.722;2023-03-17T04:08:40;6.90;99.90
78904;DHT22;68291;49.602;8.722;2023-03-17T04:11:26;6.80;99.90
78904;DHT22;68291;49.602;8.722;2023-03-17T04:14:06;6.80;99.90
78904;DHT22;68291;49.602;8.722;2023-03-17T04:17:13;6.70;99.90
78904;DHT22;68291;49.602;8.722;2023-03-17T04:19:47;6.60;99.90
78904;DHT22;68291;49.602;8.722;2023-03-17T04:22:37;6.60;99.90
78904;DHT22;68291;49.602;8.722;2023-03-17T04:25:25;6.60;99.90
78904;DHT22;68291;49.602;8.722;2023-03-17T04:27:58;6.50;99.90
78904;DHT22;68291;49.602;8.722;2023-03-17T04:30:41;6.50;99.90
78904;DHT22;68291;49.602;8.722;2023-03-17T04:33:42;6.40;99.90
78904;DHT22;68291;49.602;8.722;2023-03-17T04:36:22;6.40;99.90
78904;DHT22;68291;49.602;8.722;2023-03-17T04:38:55;6.40;99.90
78904;DHT22;68291;49.602;8.722;2023-03-17T04:41:36;6.30;99.90
78904;DHT22;68291;49.602;8.722;2023-03-17T04:44:34;6.30;99.90
78904;DHT22;68291;49.602;8.722;2023-03-17T04:47:30;6.30;99.90
78904;DHT22;68291;49.602;8.722;2023-03-17T04:50:30;6.20;99.90
78904;DHT22;68291;49.602;8.722;2023-03-17T04:53:16;6.20;99.90
78904;DHT22;68291;49.602;8.722;2023-03-17T04:55:57;6.10;99.90
78904;DHT22;68291;49.602;8.722;2023-03-17T04:58:27;6.10;99.90
78904;DHT22;68291;49.602;8.722;2023-03-17T05:01:07;6.00;99.90
78904;DHT22;68291;49.602;8.722;2023-03-17T05:03:39;6.00;99.90
78904;DHT22;68291;49.602;8.722;2023-03-17T05:06:18;6.00;99.90
78904;DHT22;68291;49.602;8.722;2023-03-17T05:08:52;6.00;99.90
78904;DHT22;68291;49.602;8.722;2023-03-17T05:11:36;5.90;99.90
78904;DHT22;68291;49.602;8.722;2023-03-17T05:14:09;5.90;99.90
78904;DHT22;68291;49.602;8.722;2023-03-17T05:16:46;5.80;99.90
78904;DHT22;68291;49.602;8.722;2023-03-17T05:19:48;5.80;99.90
78904;DHT22;68291;49.602;8.722;2023-03-17T05:22:37;5.80;99.90
78904;DHT22;68291;49.602;8.722;2023-03-17T05:25:18;5.70;99.90
78904;DHT22;68291;49.602;8.722;2023-03-17T05:28:02;5.70;99.90
78904;DHT22;68291;49.602;8.722;2023-03-17T05:30:49;5.60;99.90
78904;DHT22;68291;49.602;8.722;2023-03-17T05:33:45;5.60;99.90
78904;DHT22;68291;49.602;8.722;2023-03-17T05:36:38;5.60;99.90
78904;DHT22;68291;49.602;8.722;2023-03-17T05:39:55;5.60;99.90
78904;DHT22;68291;49.602;8.722;2023-03-17T05:42:45;5.50;99.90
78904;DHT22;68291;49.602;8.722;2023-03-17T05:45:28;5.50;99.90
78904;DHT22;68291;49.602;8.722;2023-03-17T05:48:18;5.50;99.90
78904;DHT22;68291;49.602;8.722;2023-03-17T05:51:00;5.50;99.90
78904;DHT22;68291;49.602;8.722;2023-03-17T05:53:54;5.40;99.90
78904;DHT22;68291;49.602;8.722;2023-03-17T05:56:53;5.40;99.90
78904;DHT22;68291;49.602;8.722;2023-03-17T05:59:46;5.40;99.90
78904;DHT22;68291;49.602;8.722;2023-03-17T06:02:30;5.40;99.90
78904;DHT22;68291;49.602;8.722;2023-03-17T06:05:26;5.30;99.90
78904;DHT22;68291;49.602;8.722;2023-03-17T06:08:01;5.30;99.90
78904;DHT22;68291;49.602;8.722;2023-03-17T06:10:48;5.30;99.90
78904;DHT22;68291;49.602;8.722;2023-03-17T06:13:53;5.20;99.90
78904;DHT22;68291;49.602;8.722;2023-03-17T06:16:40;5.30;99.90
78904;DHT22;68291;49.602;8.722;2023-03-17T06:19:14;5.20;99.90
78904;DHT22;68291;49.602;8.722;2023-03-17T06:21:58;5.20;99.90
78904;DHT22;68291;49.602;8.722;2023-03-17T06:24:39;5.20;99.90
78904;DHT22;68291;49.602;8.722;2023-03-17T06:27:28;5.30;99.90
78904;DHT22;68291;49.602;8.722;2023-03-17T06:30:26;5.30;99.90
78904;DHT22;68291;49.602;8.722;2023-03-17T06:33:23;5.40;99.90
78904;DHT22;68291;49.602;8.722;2023-03-17T06:36:04;5.40;99.90
78904;DHT22;68291;49.602;8.722;2023-03-17T06:38:51;5.50;99.90
78904;DHT22;68291;49.602;8.722;2023-03-17T06:41:47;5.50;99.90
78904;DHT22;68291;49.602;8.722;2023-03-17T06:44:33;5.60;99.90
78904;DHT22;68291;49.602;8.722;2023-03-17T06:47:20;5.70;99.90
78904;DHT22;68291;49.602;8.722;2023-03-17T06:50:08;5.70;99.90
78904;DHT22;68291;49.602;8.722;2023-03-17T06:52:52;5.80;99.90
78904;DHT22;68291;49.602;8.722;2023-03-17T06:55:38;5.90;99.90
78904;DHT22;68291;49.602;8.722;2023-03-17T06:58:21;6.00;99.90
78904;DHT22;68291;49.602;8.722;2023-03-17T07:01:10;6.10;99.90
78904;DHT22;68291;49.602;8.722;2023-03-17T07:04:00;6.20;99.90
78904;DHT22;68291;49.602;8.722;2023-03-17T07:06:47;6.30;99.90
78904;DHT22;68291;49.602;8.722;2023-03-17T07:09:43;6.40;99.90
78904;DHT22;68291;49.602;8.722;2023-03-17T07:12:33;6.50;99.90
78904;DHT22;68291;49.602;8.722;2023-03-17T07:15:20;6.60;99.90
78904;DHT22;68291;49.602;8.722;2023-03-17T07:18:04;6.70;99.90
78904;DHT22;68291;49.602;8.722;2023-03-17T07:20:36;6.90;99.90
78904;DHT22;68291;49.602;8.722;2023-03-17T07:23:21;7.00;99.90
78904;DHT22;68291;49.602;8.722;2023-03-17T07:26:02;7.20;99.90
78904;DHT22;68291;49.602;8.722;2023-03-17T07:28:47;7.30;99.90
78904;DHT22;68291;49.602;8.722;2023-03-17T07:31:31;7.50;99.90
78904;DHT22;68291;49.602;8.722;2023-03-17T07:34:18;7.60;99.90
78904;DHT22;68291;49.602;8.722;2023-03-17T07:40:24;8.00;99.90
78904;DHT22;68291;49.602;8.722;2023-03-17T07:43:02;8.10;99.90
78904;DHT22;68291;49.602;8.722;2023-03-17T07:45:42;8.30;99.90
78904;DHT22;68291;49.602;8.722;2023-03-17T07:48:22;8.40;99.90
78904;DHT22;68291;49.602;8.722;2023-03-17T07:50:54;8.60;99.90
78904;DHT22;68291;49.602;8.722;2023-03-17T07:53:52;8.70;99.90
78904;DHT22;68291;49.602;8.722;2023-03-17T07:56:51;8.90;99.90
78904;DHT22;68291;49.602;8.722;2023-03-17T07:59:39;9.10;99.90
78904;DHT22;68291;49.602;8.722;2023-03-17T08:02:38;9.20;99.90
78904;DHT22;68291;49.602;8.722;2023-03-17T08:05:39;9.40;99.90
78904;DHT22;68291;49.602;8.722;2023-03-17T08:08:17;9.60;99.90
78904;DHT22;68291;49.602;8.722;2023-03-17T08:11:04;9.80;99.90
78904;DHT22;68291;49.602;8.722;2023-03-17T08:13:51;10.00;99.90
78904;DHT22;68291;49.602;8.722;2023-03-17T08:16:47;10.10;99.90
78904;DHT22;68291;49.602;8.722;2023-03-17T08:19:42;10.30;99.90
78904;DHT22;68291;49.602;8.722;2023-03-17T08:22:33;10.50;99.90
78904;DHT22;68291;49.602;8.722;2023-03-17T08:25:29;10.70;99.90
78904;DHT22;68291;49.602;8.722;2023-03-17T08:28:33;10.90;99.90
78904;DHT22;68291;49.602;8.722;2023-03-17T08:31:08;11.00;99.90
78904;DHT22;68291;49.602;8.722;2023-03-17T08:33:45;11.20;99.90
78904;DHT22;68291;49.602;8.722;2023-03-17T08:36:21;11.40;99.90
78904;DHT22;68291;49.602;8.722;2023-03-17T08:39:00;11.50;99.90
78904;DHT22;68291;49.602;8.722;2023-03-17T08:41:48;11.70;99.90
78904;DHT22;68291;49.602;8.722;2023-03-17T08:45:05;11.90;99.90
78904;DHT22;68291;49.602;8.722;2023-03-17T08:47:56;12.10;99.90
78904;DHT22;68291;49.602;8.722;2023-03-17T08:50:45;12.30;99.90
78904;DHT22;68291;49.602;8.722;2023-03-17T08:53:30;12.50;99.90
78904;DHT22;68291;49.602;8.722;2023-03-17T08:56:11;12.70;99.90
78904;DHT22;68291;49.602;8.722;2023-03-17T08:58:55;12.80;99.90
78904;DHT22;68291;49.602;8.722;2023-03-17T09:01:39;13.00;99.90
78904;DHT22;68291;49.602;8.722;2023-03-17T09:04:28;13.20;99.90
78904;DHT22;68291;49.602;8.722;2023-03-17T09:07:14;13.30;99.90
78904;DHT22;68291;49.602;8.722;2023-03-17T09:09:56;13.50;99.90
78904;DHT22;68291;49.602;8.722;2023-03-17T09:12:51;13.60;99.90
78904;DHT22;68291;49.602;8.722;2023-03-17T09:15:32;13.80;99.90
78904;DHT22;68291;49.602;8.722;2023-03-17T09:18:09;14.00;99.90
78904;DHT22;68291;49.602;8.722;2023-03-17T09:21:05;14.10;99.90
78904;DHT22;68291;49.602;8.722;2023-03-17T09:23:40;14.30;99.90
78904;DHT22;68291;49.602;8.722;2023-03-17T09:26:35;14.50;99.90
78904;DHT22;68291;49.602;8.722;2023-03-17T09:29:10;14.70;99.90
78904;DHT22;68291;49.602;8.722;2023-03-17T09:31:56;14.90;99.90
78904;DHT22;68291;49.602;8.722;2023-03-17T09:34:38;15.10;99.90
78904;DHT22;68291;49.602;8.722;2023-03-17T09:37:19;15.30;99.90
78904;DHT22;68291;49.602;8.722;2023-03-17T09:40:03;15.50;99.90
78904;DHT22;68291;49.602;8.722;2023-03-17T09:42:53;15.70;99.90
78904;DHT22;68291;49.602;8.722;2023-03-17T09:45:44;15.90;99.90
78904;DHT22;68291;49.602;8.722;2023-03-17T09:48:53;16.10;99.90
78904;DHT22;68291;49.602;8.722;2023-03-17T09:51:54;16.30;99.90
78904;DHT22;68291;49.602;8.722;2023-03-17T09:54:49;16.50;99.90
78904;DHT22;68291;49.602;8.722;2023-03-17T09:57:39;16.60;99.90
78904;DHT22;68291;49.602;8.722;2023-03-17T10:00:28;16.80;99.90
78904;DHT22;68291;49.602;8.722;2023-03-17T10:03:08;16.90;99.90
78904;DHT22;68291;49.602;8.722;2023-03-17T10:09:23;17.10;99.90
78904;DHT22;68291;49.602;8.722;2023-03-17T10:12:13;17.20;99.90
78904;DHT22;68291;49.602;8.722;2023-03-17T10:15:16;17.40;99.90
78904;DHT22;68291;49.602;8.722;2023-03-17T10:17:56;17.50;99.90
78904;DHT22;68291;49.602;8.722;2023-03-17T10:20:48;17.60;99.90
78904;DHT22;68291;49.602;8.722;2023-03-17T10:23:51;17.60;99.90
78904;DHT22;68291;49.602;8.722;2023-03-17T10:26:44;17.80;99.90
78904;DHT22;68291;49.602;8.722;2023-03-17T10:29:42;17.80;99.90
78904;DHT22;68291;49.602;8.722;2023-03-17T10:32:30;17.90;99.90
78904;DHT22;68291;49.602;8.722;2023-03-17T10:35:27;17.90;99.90
78904;DHT22;68291;49.602;8.722;2023-03-17T10:38:23;17.90;99.90
78904;DHT22;68291;49.602;8.722;2023-03-17T10:41:08;18.00;99.90
78904;DHT22;68291;49.602;8.722;2023-03-17T10:47:30;18.10;99.90
78904;DHT22;68291;49.602;8.722;2023-03-17T10:50:31;18.20;99.90
78904;DHT22;68291;49.602;8.722;2023-03-17T10:53:24;18.30;99.90
78904;DHT22;68291;49.602;8.722;2023-03-17T10:56:22;18.40;99.90
78904;DHT22;68291;49.602;8.722;2023-03-17T10:59:16;18.50;99.90
78904;DHT22;68291;49.602;8.722;2023-03-17T11:02:13;18.60;99.90
78904;DHT22;68291;49.602;8.722;2023-03-17T11:05:05;18.70;99.90
78904;DHT22;68291;49.602;8.722;2023-03-17T11:08:07;18.80;99.90
78904;DHT22;68291;49.602;8.722;2023-03-17T11:11:03;18.90;98.30
78904;DHT22;68291;49.602;8.722;2023-03-17T11:13:39;19.00;99.90
78904;DHT22;68291;49.602;8.722;2023-03-17T11:16:36;19.10;99.90
78904;DHT22;68291;49.602;8.722;2023-03-17T11:19:45;19.30;99.90
78904;DHT22;68291;49.602;8.722;2023-03-17T11:22:48;19.40;97.90
78904;DHT22;68291;49.602;8.722;2023-03-17T11:26:04;19.50;99.90
78904;DHT22;68291;49.602;8.722;2023-03-17T11:28:53;19.60;99.10
78904;DHT22;68291;49.602;8.722;2023-03-17T11:31:56;19.60;97.70
78904;DHT22;68291;49.602;8.722;2023-03-17T11:38:26;19.60;96.90
78904;DHT22;68291;49.602;8.722;2023-03-17T11:41:49;19.60;97.00
78904;DHT22;68291;49.602;8.722;2023-03-17T11:44:59;19.50;97.20
78904;DHT22;68291;49.602;8.722;2023-03-17T11:48:01;19.50;96.00
78904;DHT22;68291;49.602;8.722;2023-03-17T11:51:16;19.40;96.80
78904;DHT22;68291;49.602;8.722;2023-03-17T11:54:08;19.40;95.70
78904;DHT22;68291;49.602;8.722;2023-03-17T11:56:52;19.40;96.70
78904;DHT22;68291;49.602;8.722;2023-03-17T11:59:48;19.40;96.20
78904;DHT22;68291;49.602;8.722;2023-03-17T12:02:41;19.40;95.20
78904;DHT22;68291;49.602;8.722;2023-03-17T12:05:35;19.40;94.80
78904;DHT22;68291;49.602;8.722;2023-03-17T12:08:34;19.30;94.60
78904;DHT22;68291;49.602;8.722;2023-03-17T12:11:31;19.40;94.00
78904;DHT22;68291;49.602;8.722;2023-03-17T12:14:27;19.40;95.30
78904;DHT22;68291;49.602;8.722;2023-03-17T12:17:21;19.40;93.00
78904;DHT22;68291;49.602;8.722;2023-03-17T12:20:18;19.40;92.10
78904;DHT22;68291;49.602;8.722;2023-03-17T12:23:05;19.40;94.50
78904;DHT22;68291;49.602;8.722;2023-03-17T12:26:04;19.40;95.00
78904;DHT22;68291;49.602;8.722;2023-03-17T12:28:50;19.50;94.80
78904;DHT22;68291;49.602;8.722;2023-03-17T12:32:04;19.60;94.80
78904;DHT22;68291;49.602;8.722;2023-03-17T12:34:58;19.70;95.80
78904;DHT22;68291;49.602;8.722;2023-03-17T12:37:38;19.80;94.80
78904;DHT22;68291;49.602;8.722;2023-03-17T12:40:21;19.80;94.30
78904;DHT22;68291;49.602;8.722;2023-03-17T12:43:35;19.80;94.00
78904;DHT22;68291;49.602;8.722;2023-03-17T12:53:37;19.60;91.30
78904;DHT22;68291;49.602;8.722;2023-03-17T12:56:19;19.50;90.60
78904;DHT22;68291;49.602;8.722;2023-03-17T12:58:59;19.40;91.90
78904;DHT22;68291;49.602;8.722;2023-03-17T13:01:42;19.40;92.30
78904;DHT22;68291;49.602;8.722;2023-03-17T13:04:23;19.40;94.00
78904;DHT22;68291;49.602;8.722;2023-03-17T13:07:05;19.30;93.60
78904;DHT22;68291;49.602;8.722;2023-03-17T13:09:44;19.30;93.50
78904;DHT22;68291;49.602;8.722;2023-03-17T13:13:19;19.30;93.70
78904;DHT22;68291;49.602;8.722;2023-03-17T13:19:33;19.30;93.10
78904;DHT22;68291;49.602;8.722;2023-03-17T13:22:33;19.30;93.10
78904;DHT22;68291;49.602;8.722;2023-03-17T13:25:28;19.30;92.60
78904;DHT22;68291;49.602;8.722;2023-03-17T13:28:23;19.30;93.30
78904;DHT22;68291;49.602;8.722;2023-03-17T13:31:27;19.30;93.10
78904;DHT22;68291;49.602;8.722;2023-03-17T13:34:27;19.40;93.80
78904;DHT22;68291;49.602;8.722;2023-03-17T13:37:22;19.40;93.90
78904;DHT22;68291;49.602;8.722;2023-03-17T13:40:28;19.40;94.10
78904;DHT22;68291;49.602;8.722;2023-03-17T13:43:43;19.50;94.30
78904;DHT22;68291;49.602;8.722;2023-03-17T13:46:38;19.50;94.30
78904;DHT22;68291;49.602;8.722;2023-03-17T13:49:28;19.50;94.40
78904;DHT22;68291;49.602;8.722;2023-03-17T13:52:31;19.50;94.20
78904;DHT22;68291;49.602;8.722;2023-03-17T13:55:37;19.60;94.80
78904;DHT22;68291;49.602;8.722;2023-03-17T13:58:31;19.60;94.70
78904;DHT22;68291;49.602;8.722;2023-03-17T14:01:15;19.60;95.20
78904;DHT22;68291;49.602;8.722;2023-03-17T14:04:01;19.70;95.60
78904;DHT22;68291;49.602;8.722;2023-03-17T14:06:48;19.70;94.60
78904;DHT22;68291;49.602;8.722;2023-03-17T14:09:40;19.70;94.60
78904;DHT22;68291;49.602;8.722;2023-03-17T14:12:41;19.70;95.50
78904;DHT22;68291;49.602;8.722;2023-03-17T14:15:36;19.70;95.30
78904;DHT22;68291;49.602;8.722;2023-03-17T14:18:29;19.70;95.60
78904;DHT22;68291;49.602;8.722;2023-03-17T14:21:21;19.70;95.40
78904;DHT22;68291;49.602;8.722;2023-03-17T14:24:21;19.70;95.20
78904;DHT22;68291;49.602;8.722;2023-03-17T14:27:05;19.70;95.40
78904;DHT22;68291;49.602;8.722;2023-03-17T14:29:38;19.70;95.70
78904;DHT22;68291;49.602;8.722;2023-03-17T14:32:29;19.70;96.30
78904;DHT22;68291;49.602;8.722;2023-03-17T14:35:17;19.60;96.20
78904;DHT22;68291;49.602;8.722;2023-03-17T14:38:00;19.60;96.20
78904;DHT22;68291;49.602;8.722;2023-03-17T14:40:59;19.60;96.20
78904;DHT22;68291;49.602;8.722;2023-03-17T14:43:42;19.70;95.60
78904;DHT22;68291;49.602;8.722;2023-03-17T14:46:37;19.60;96.20
78904;DHT22;68291;49.602;8.722;2023-03-17T14:49:20;19.70;96.30
78904;DHT22;68291;49.602;8.722;2023-03-17T14:52:01;19.70;96.20
78904;DHT22;68291;49.602;8.722;2023-03-17T14:54:49;19.60;96.30
78904;DHT22;68291;49.602;8.722;2023-03-17T14:57:31;19.60;96.10
78904;DHT22;68291;49.602;8.722;2023-03-17T15:00:31;19.60;96.10
78904;DHT22;68291;49.602;8.722;2023-03-17T15:03:19;19.50;96.50
78904;DHT22;68291;49.602;8.722;2023-03-17T15:06:23;19.50;97.00
78904;DHT22;68291;49.602;8.722;2023-03-17T15:09:24;19.50;96.40
78904;DHT22;68291;49.602;8.722;2023-03-17T15:12:03;19.40;96.80
78904;DHT22;68291;49.602;8.722;2023-03-17T15:15:01;19.40;97.30
78904;DHT22;68291;49.602;8.722;2023-03-17T15:17:50;19.30;96.90
78904;DHT22;68291;49.602;8.722;2023-03-17T15:20:33;19.30;97.80
78904;DHT22;68291;49.602;8.722;2023-03-17T15:23:15;19.30;98.50
78904;DHT22;68291;49.602;8.722;2023-03-17T15:25:56;19.20;98.20
78904;DHT22;68291;49.602;8.722;2023-03-17T15:28:41;19.20;98.50
78904;DHT22;68291;49.602;8.722;2023-03-17T15:31:25;19.10;98.60
78904;DHT22;68291;49.602;8.722;2023-03-17T15:34:06;19.00;98.50
78904;DHT22;68291;49.602;8.722;2023-03-17T15:37:02;19.00;99.20
78904;DHT22;68291;49.602;8.722;2023-03-17T15:39:56;18.90;99.10
78904;DHT22;68291;49.602;8.722;2023-03-17T15:42:52;18.80;99.20
78904;DHT22;68291;49.602;8.722;2023-03-17T15:45:32;18.80;99.90
78904;DHT22;68291;49.602;8.722;2023-03-17T15:48:32;18.70;99.50
78904;DHT22;68291;49.602;8.722;2023-03-17T15:51:10;18.70;98.80
78904;DHT22;68291;49.602;8.722;2023-03-17T15:53:48;18.60;99.90
78904;DHT22;68291;49.602;8.722;2023-03-17T15:56:29;18.50;99.90
78904;DHT22;68291;49.602;8.722;2023-03-17T15:59:25;18.50;99.90
78904;DHT22;68291;49.602;8.722;2023-03-17T16:02:26;18.50;99.90
78904;DHT22;68291;49.602;8.722;2023-03-17T16:05:13;18.40;99.90
78904;DHT22;68291;49.602;8.722;2023-03-17T16:08:01;18.40;99.90
78904;DHT22;68291;49.602;8.722;2023-03-17T16:11:01;18.30;99.90
78904;DHT22;68291;49.602;8.722;2023-03-17T16:13:47;18.30;99.90
78904;DHT22;68291;49.602;8.722;2023-03-17T16:16:36;18.20;99.90
78904;DHT22;68291;49.602;8.722;2023-03-17T16:19:28;18.20;99.90
78904;DHT22;68291;49.602;8.722;2023-03-17T16:22:34;18.10;99.90
78904;DHT22;68291;49.602;8.722;2023-03-17T16:25:29;18.00;99.90
78904;DHT22;68291;49.602;8.722;2023-03-17T16:28:13;18.00;99.90
78904;DHT22;68291;49.602;8.722;2023-03-17T16:30:58;17.90;99.90
78904;DHT22;68291;49.602;8.722;2023-03-17T16:33:46;17.80;99.90
78904;DHT22;68291;49.602;8.722;2023-03-17T16:36:43;17.70;99.90
78904;DHT22;68291;49.602;8.722;2023-03-17T16:39:32;17.60;99.90
78904;DHT22;68291;49.602;8.722;2023-03-17T16:42:21;17.50;99.90
78904;DHT22;68291;49.602;8.722;2023-03-17T16:45:24;17.40;99.90
78904;DHT22;68291;49.602;8.722;2023-03-17T16:48:02;17.30;99.90
78904;DHT22;68291;49.602;8.722;2023-03-17T16:50:51;17.20;99.90
78904;DHT22;68291;49.602;8.722;2023-03-17T16:53:42;17.20;99.90
78904;DHT22;68291;49.602;8.722;2023-03-17T16:56:33;17.10;99.90
78904;DHT22;68291;49.602;8.722;2023-03-17T16:59:21;17.00;99.90
78904;DHT22;68291;49.602;8.722;2023-03-17T17:02:20;16.90;99.90
78904;DHT22;68291;49.602;8.722;2023-03-17T17:04:58;16.80;99.90
78904;DHT22;68291;49.602;8.722;2023-03-17T17:07:34;16.80;99.90
78904;DHT22;68291;49.602;8.722;2023-03-17T17:10:19;16.70;99.90
78904;DHT22;68291;49.602;8.722;2023-03-17T17:13:22;16.60;99.90
78904;DHT22;68291;49.602;8.722;2023-03-17T17:16:25;16.50;99.90
78904;DHT22;68291;49.602;8.722;2023-03-17T17:19:25;16.50;99.90
78904;DHT22;68291;49.602;8.722;2023-03-17T17:22:11;16.40;99.90
78904;DHT22;68291;49.602;8.722;2023-03-17T17:24:44;16.30;99.90
78904;DHT22;68291;49.602;8.722;2023-03-17T17:27:18;16.20;99.90
78904;DHT22;68291;49.602;8.722;2023-03-17T17:30:16;16.20;99.90
78904;DHT22;68291;49.602;8.722;2023-03-17T17:33:05;16.10;99.90
78904;DHT22;68291;49.602;8.722;2023-03-17T17:35:39;16.00;99.90
78904;DHT22;68291;49.602;8.722;2023-03-17T17:38:19;15.90;99.90
78904;DHT22;68291;49.602;8.722;2023-03-17T17:41:08;15.80;99.90
78904;DHT22;68291;49.602;8.722;2023-03-17T17:44:17;15.70;99.90
78904;DHT22;68291;49.602;8.722;2023-03-17T17:47:08;15.60;99.90
78904;DHT22;68291;49.602;8.722;2023-03-17T17:49:44;15.50;99.90
78904;DHT22;68291;49.602;8.722;2023-03-17T17:52:18;15.40;99.90
78904;DHT22;68291;49.602;8.722;2023-03-17T17:55:10;15.30;99.90
78904;DHT22;68291;49.602;8.722;2023-03-17T17:58:01;15.20;99.90
78904;DHT22;68291;49.602;8.722;2023-03-17T18:00:44;15.20;99.90
78904;DHT22;68291;49.602;8.722;2023-03-17T18:03:32;15.10;99.90
78904;DHT22;68291;49.602;8.722;2023-03-17T18:06:22;15.00;99.90
78904;DHT22;68291;49.602;8.722;2023-03-17T18:08:53;15.00;99.90
78904;DHT22;68291;49.602;8.722;2023-03-17T18:11:33;14.90;99.90
78904;DHT22;68291;49.602;8.722;2023-03-17T18:14:18;14.80;99.90
78904;DHT22;68291;49.602;8.722;2023-03-17T18:17:09;14.80;99.90
78904;DHT22;68291;49.602;8.722;2023-03-17T18:20:22;14.70;99.90
78904;DHT22;68291;49.602;8.722;2023-03-17T18:22:59;14.60;99.90
78904;DHT22;68291;49.602;8.722;2023-03-17T18:25:58;14.50;99.90